Time;durP1;ratioP1;P1;durP2;ratioP2;P2;SDS_P1;SDS_P2;PMS_P1;PMS_P2;Temp;Humidity;BMP_temperature;BMP_pressure;BME280_temperature;BME280_humidity;BME280_pressure;Samples;Min_cycle;Max_cycle;Signal;HPM_P1;HPM_P2
2022/04/17 00:01:43;;;;;;;;;;;8.70;77.40;;;;;;4971173;28;19961;-80
2022/04/17 00:04:13;;;;;;;;;;;8.70;77.40;;;;;;4971365;28;19933;-80
2022/04/17 00:06:41;;;;;;;;;;;8.70;77.40;;;;;;4970458;28;19926;-81
2022/04/17 00:09:08;;;;;;;;;;;8.70;77.50;;;;;;4977517;28;19950;-80
2022/04/17 00:11:35;;;;;;;;;;;8.60;77.70;;;;;;4974365;28;20482;-82
2022/04/17 00:14:02;;;;;;;;;;;8.60;77.70;;;;;;4976575;28;19958;-82
2022/04/17 00:16:29;;;;;;;;;;;8.60;77.60;;;;;;4979776;28;19930;-82
2022/04/17 00:18:56;;;;;;;;;;;8.60;77.70;;;;;;4974699;28;19930;-80
2022/04/17 00:21:23;;;;;;;;;;;8.50;77.70;;;;;;4966325;28;19934;-81
2022/04/17 00:23:51;;;;;;;;;;;8.50;77.80;;;;;;4961658;28;20516;-82
2022/04/17 00:26:19;;;;;;;;;;;8.50;77.90;;;;;;4976368;28;19993;-81
2022/04/17 00:28:46;;;;;;;;;;;8.50;78.00;;;;;;4971805;28;19968;-80
2022/04/17 00:31:13;;;;;;;;;;;8.40;77.90;;;;;;4973266;28;19981;-80
2022/04/17 00:33:39;;;;;;;;;;;8.40;78.60;;;;;;4954465;28;19966;-81
2022/04/17 00:36:06;;;;;;;;;;;8.40;78.00;;;;;;4964957;28;20021;-80
2022/04/17 00:38:33;;;;;;;;;;;8.40;78.00;;;;;;4971252;28;20020;-81
2022/04/17 00:41:02;;;;;;;;;;;8.40;78.10;;;;;;4954450;28;20008;-80
2022/04/17 00:43:30;;;;;;;;;;;8.30;78.10;;;;;;4969270;28;19936;-81
2022/04/17 00:45:57;;;;;;;;;;;8.30;78.20;;;;;;4970140;28;20312;-79
2022/04/17 00:48:24;;;;;;;;;;;8.30;78.20;;;;;;4993673;23;19941;-82
2022/04/17 00:50:53;;;;;;;;;;;8.20;78.70;;;;;;4965762;28;19930;-84
2022/04/17 00:53:21;;;;;;;;;;;8.20;78.30;;;;;;4975779;28;20052;-83
2022/04/17 00:55:49;;;;;;;;;;;8.20;78.30;;;;;;4983878;28;19957;-82
2022/04/17 00:58:18;;;;;;;;;;;8.20;78.40;;;;;;4957173;28;19926;-82
2022/04/17 01:00:45;;;;;;;;;;;8.10;78.40;;;;;;4955085;28;19934;-83
2022/04/17 01:03:14;;;;;;;;;;;8.10;78.40;;;;;;4970716;28;19927;-83
2022/04/17 01:05:43;;;;;;;;;;;8.10;78.50;;;;;;4968017;28;19927;-84
2022/04/17 01:08:11;;;;;;;;;;;8.10;78.50;;;;;;4959170;28;19930;-83
2022/04/17 01:10:38;;;;;;;;;;;8.00;78.50;;;;;;4960904;28;19926;-83
2022/04/17 01:13:08;;;;;;;;;;;8.00;78.60;;;;;;4964457;28;19946;-82
2022/04/17 01:15:37;;;;;;;;;;;8.00;78.70;;;;;;4966363;28;19941;-81
2022/04/17 01:18:04;;;;;;;;;;;8.00;78.70;;;;;;4944480;29;19989;-84
2022/04/17 01:20:30;;;;;;;;;;;7.90;78.60;;;;;;4964781;28;19926;-84
2022/04/17 01:28:25;;;;;;;;;;;7.90;78.80;;;;;;4949843;28;19929;-81
2022/04/17 01:30:52;;;;;;;;;;;7.90;78.90;;;;;;4962431;28;19964;-83
2022/04/17 01:33:19;;;;;;;;;;;7.80;79.40;;;;;;4970189;28;19934;-82
2022/04/17 01:35:46;;;;;;;;;;;7.80;78.90;;;;;;4958127;28;20372;-84
2022/04/17 01:38:14;;;;;;;;;;;7.80;78.90;;;;;;4965191;28;19934;-81
2022/04/17 01:40:41;;;;;;;;;;;7.80;79.00;;;;;;4965096;28;19950;-81
2022/04/17 01:43:09;;;;;;;;;;;7.70;78.90;;;;;;4957246;28;19933;-83
2022/04/17 01:45:36;;;;;;;;;;;7.70;78.90;;;;;;4961413;28;20348;-83
2022/04/17 01:48:03;;;;;;;;;;;7.70;78.90;;;;;;4946000;28;19934;-82
2022/04/17 01:50:31;;;;;;;;;;;7.70;79.00;;;;;;4967486;28;20578;-83
2022/04/17 01:52:58;;;;;;;;;;;7.60;78.90;;;;;;4960988;28;19934;-85
2022/04/17 01:55:26;;;;;;;;;;;7.60;78.90;;;;;;4962312;28;20021;-84
2022/04/17 01:57:53;;;;;;;;;;;7.60;79.00;;;;;;4964443;28;19927;-81
2022/04/17 02:00:20;;;;;;;;;;;7.60;79.00;;;;;;4962879;28;20363;-81
2022/04/17 02:02:47;;;;;;;;;;;7.50;79.00;;;;;;4955490;28;20389;-81
2022/04/17 02:05:14;;;;;;;;;;;7.50;79.00;;;;;;4960103;28;19934;-82
2022/04/17 02:07:41;;;;;;;;;;;7.50;79.10;;;;;;4960064;28;19933;-84
2022/04/17 02:10:08;;;;;;;;;;;7.50;79.10;;;;;;4957679;28;20376;-82
2022/04/17 02:12:36;;;;;;;;;;;7.50;79.10;;;;;;4962803;28;19935;-83
2022/04/17 02:15:03;;;;;;;;;;;7.50;79.10;;;;;;4970946;28;19935;-84
2022/04/17 02:17:32;;;;;;;;;;;7.40;79.10;;;;;;4967791;28;20293;-84
2022/04/17 02:19:59;;;;;;;;;;;7.40;79.20;;;;;;4957384;28;19934;-84
2022/04/17 02:22:26;;;;;;;;;;;7.40;79.20;;;;;;4964017;28;19934;-82
2022/04/17 02:24:53;;;;;;;;;;;7.30;79.20;;;;;;4963328;28;19926;-84
2022/04/17 02:27:20;;;;;;;;;;;7.30;79.20;;;;;;4966698;28;19927;-82
2022/04/17 02:29:48;;;;;;;;;;;7.30;79.30;;;;;;4966545;28;19926;-82
2022/04/17 02:32:15;;;;;;;;;;;7.30;79.40;;;;;;4963119;28;20352;-83
2022/04/17 02:34:42;;;;;;;;;;;7.30;79.40;;;;;;4965097;28;19937;-82
2022/04/17 02:37:09;;;;;;;;;;;7.20;79.40;;;;;;4962801;28;19926;-82
2022/04/17 02:39:37;;;;;;;;;;;7.20;79.50;;;;;;4964598;28;19930;-84
2022/04/17 02:42:04;;;;;;;;;;;7.20;79.50;;;;;;4971221;28;19978;-82
2022/04/17 02:44:31;;;;;;;;;;;7.20;79.50;;;;;;4962443;28;19926;-83
2022/04/17 02:49:44;;;;;;;;;;;7.10;79.50;;;;;;4963207;28;19926;-84
2022/04/17 02:52:11;;;;;;;;;;;7.10;79.50;;;;;;4964923;28;19930;-81
2022/04/17 02:54:39;;;;;;;;;;;7.10;79.50;;;;;;4963335;28;19989;-83
2022/04/17 02:57:06;;;;;;;;;;;7.10;79.60;;;;;;4966502;28;19927;-83
2022/04/17 02:59:33;;;;;;;;;;;7.10;79.60;;;;;;4962163;28;19934;-81
2022/04/17 03:07:32;;;;;;;;;;;7.00;79.70;;;;;;4961472;28;19923;-82
2022/04/17 03:09:58;;;;;;;;;;;7.00;79.70;;;;;;4957156;28;19926;-81
2022/04/17 03:12:25;;;;;;;;;;;6.90;79.70;;;;;;4960744;28;19926;-83
2022/04/17 03:14:52;;;;;;;;;;;6.90;79.80;;;;;;4958849;28;19935;-83
2022/04/17 03:17:20;;;;;;;;;;;6.90;79.80;;;;;;4961149;28;19930;-82
2022/04/17 03:19:47;;;;;;;;;;;6.90;79.80;;;;;;4960578;28;20400;-81
2022/04/17 03:22:14;;;;;;;;;;;6.90;79.90;;;;;;4958729;28;19927;-82
2022/04/17 03:24:41;;;;;;;;;;;6.80;79.80;;;;;;4959500;28;19976;-82
2022/04/17 03:27:08;;;;;;;;;;;6.80;79.80;;;;;;4961279;28;19926;-83
2022/04/17 03:29:35;;;;;;;;;;;6.80;79.90;;;;;;4961730;28;19930;-81
2022/04/17 03:32:02;;;;;;;;;;;6.80;80.00;;;;;;4949722;28;19934;-83
2022/04/17 03:34:31;;;;;;;;;;;6.80;80.10;;;;;;4967427;28;20401;-83
2022/04/17 03:36:58;;;;;;;;;;;6.80;80.00;;;;;;4961394;28;20025;-81
2022/04/17 03:39:25;;;;;;;;;;;6.70;80.00;;;;;;4964520;28;19978;-82
2022/04/17 03:41:52;;;;;;;;;;;6.70;80.00;;;;;;4964556;28;20017;-81
2022/04/17 03:44:19;;;;;;;;;;;6.70;80.10;;;;;;4955546;28;19951;-82
2022/04/17 03:46:47;;;;;;;;;;;6.70;80.20;;;;;;4956194;28;20050;-81
2022/04/17 03:49:14;;;;;;;;;;;6.70;80.20;;;;;;4957778;28;19938;-81
2022/04/17 03:51:43;;;;;;;;;;;6.60;80.00;;;;;;4953776;28;19945;-81
2022/04/17 03:54:10;;;;;;;;;;;6.60;80.20;;;;;;4953649;28;19934;-82
2022/04/17 03:56:37;;;;;;;;;;;6.60;80.20;;;;;;4952765;28;20020;-82
2022/04/17 03:59:04;;;;;;;;;;;6.60;80.20;;;;;;4948473;28;19937;-82
2022/04/17 04:01:31;;;;;;;;;;;6.60;80.30;;;;;;4954425;28;19967;-83
2022/04/17 04:03:58;;;;;;;;;;;6.50;80.20;;;;;;4958394;28;19941;-83
2022/04/17 04:06:24;;;;;;;;;;;6.50;80.30;;;;;;4961080;28;20001;-84
2022/04/17 04:08:53;;;;;;;;;;;6.50;80.30;;;;;;4942374;28;19934;-81
2022/04/17 04:11:20;;;;;;;;;;;6.50;80.30;;;;;;4965666;28;20389;-81
2022/04/17 04:13:47;;;;;;;;;;;6.50;80.40;;;;;;4953655;28;19934;-81
2022/04/17 04:16:14;;;;;;;;;;;6.50;80.40;;;;;;4964880;28;20014;-82
2022/04/17 04:18:41;;;;;;;;;;;6.40;80.40;;;;;;4951787;28;19931;-82
2022/04/17 04:21:08;;;;;;;;;;;6.40;80.60;;;;;;4955725;28;19950;-83
2022/04/17 04:23:35;;;;;;;;;;;6.40;80.50;;;;;;4959715;28;19953;-82
2022/04/17 04:26:04;;;;;;;;;;;6.40;80.60;;;;;;4956127;28;19935;-82
2022/04/17 04:28:34;;;;;;;;;;;6.40;80.60;;;;;;4957098;28;20374;-81
2022/04/17 04:31:00;;;;;;;;;;;6.30;80.50;;;;;;4960122;28;19926;-81
2022/04/17 04:33:31;;;;;;;;;;;6.40;80.60;;;;;;4955641;28;19930;-81
2022/04/17 04:35:58;;;;;;;;;;;6.30;80.50;;;;;;4957349;28;19933;-81
2022/04/17 04:38:25;;;;;;;;;;;6.30;80.50;;;;;;4950704;28;19931;-81
2022/04/17 04:40:52;;;;;;;;;;;6.30;80.60;;;;;;4950868;28;19927;-81
2022/04/17 04:43:21;;;;;;;;;;;6.30;80.60;;;;;;4954117;28;19934;-81
2022/04/17 04:51:23;;;;;;;;;;;6.20;80.70;;;;;;4953536;28;19930;-81
2022/04/17 04:53:50;;;;;;;;;;;6.20;80.70;;;;;;4944107;28;20151;-81
2022/04/17 04:56:17;;;;;;;;;;;6.20;80.80;;;;;;4950587;28;19933;-81
2022/04/17 04:58:45;;;;;;;;;;;6.20;80.70;;;;;;4946120;28;19926;-81
2022/04/17 05:01:13;;;;;;;;;;;6.20;80.80;;;;;;4948428;28;20297;-81
2022/04/17 05:03:40;;;;;;;;;;;6.10;80.80;;;;;;4950179;28;19934;-81
2022/04/17 05:06:07;;;;;;;;;;;6.10;80.70;;;;;;4948589;28;19930;-81
2022/04/17 05:08:34;;;;;;;;;;;6.10;80.70;;;;;;4955840;28;20045;-83
2022/04/17 05:11:01;;;;;;;;;;;6.10;80.80;;;;;;4950214;28;19942;-81
2022/04/17 05:13:28;;;;;;;;;;;6.10;80.80;;;;;;4958272;28;19939;-82
2022/04/17 05:15:56;;;;;;;;;;;6.10;80.90;;;;;;4963950;28;20269;-83
2022/04/17 05:18:23;;;;;;;;;;;6.00;80.80;;;;;;4965770;28;19934;-82
2022/04/17 05:20:51;;;;;;;;;;;6.00;80.90;;;;;;4964610;28;19962;-82
2022/04/17 05:23:19;;;;;;;;;;;6.00;80.90;;;;;;4961377;28;19973;-80
2022/04/17 05:25:47;;;;;;;;;;;6.00;81.00;;;;;;4962618;28;20037;-83
2022/04/17 05:28:14;;;;;;;;;;;6.00;80.90;;;;;;4952336;28;20389;-82
2022/04/17 05:30:41;;;;;;;;;;;6.00;80.90;;;;;;4954091;28;19934;-81
2022/04/17 05:33:10;;;;;;;;;;;6.00;80.90;;;;;;4954863;28;20033;-81
2022/04/17 05:35:37;;;;;;;;;;;6.10;81.10;;;;;;4948288;28;20399;-82
2022/04/17 05:38:06;;;;;;;;;;;5.90;81.00;;;;;;4944967;28;20333;-82
2022/04/17 05:40:35;;;;;;;;;;;6.00;81.10;;;;;;4935678;29;19966;-82
2022/04/17 05:43:02;;;;;;;;;;;5.90;81.10;;;;;;4954352;28;19938;-82
2022/04/17 05:45:29;;;;;;;;;;;5.90;81.00;;;;;;4948654;28;19930;-81
2022/04/17 05:47:57;;;;;;;;;;;5.90;81.00;;;;;;4944728;28;19981;-82
2022/04/17 05:50:25;;;;;;;;;;;5.90;81.10;;;;;;4953732;28;20534;-81
2022/04/17 05:52:52;;;;;;;;;;;5.90;81.10;;;;;;4946155;28;20024;-83
2022/04/17 05:55:19;;;;;;;;;;;5.90;81.20;;;;;;4954188;28;20452;-81
2022/04/17 05:57:46;;;;;;;;;;;5.90;81.20;;;;;;4951515;28;20321;-82
2022/04/17 06:00:16;;;;;;;;;;;5.90;81.20;;;;;;4948873;28;19931;-82
2022/04/17 06:02:44;;;;;;;;;;;5.80;81.20;;;;;;4950817;28;19927;-83
2022/04/17 06:05:11;;;;;;;;;;;5.90;81.30;;;;;;4950479;28;19934;-81
2022/04/17 06:07:40;;;;;;;;;;;5.90;81.30;;;;;;4949031;28;19976;-81
2022/04/17 06:10:08;;;;;;;;;;;5.80;81.20;;;;;;4946355;28;19935;-81
2022/04/17 06:12:35;;;;;;;;;;;5.80;81.20;;;;;;4952249;28;19985;-81
2022/04/17 06:15:03;;;;;;;;;;;5.80;81.20;;;;;;4950306;28;19933;-82
2022/04/17 06:17:36;;;;;;;;;;;5.80;81.40;;;;;;4953753;28;20018;-82
2022/04/17 06:20:05;;;;;;;;;;;5.80;81.50;;;;;;4950504;28;19957;-81
2022/04/17 06:22:32;;;;;;;;;;;5.80;81.60;;;;;;4949660;28;20001;-81
2022/04/17 06:25:00;;;;;;;;;;;5.90;81.90;;;;;;4954461;28;19926;-81
2022/04/17 06:27:27;;;;;;;;;;;5.80;82.00;;;;;;4949794;28;19930;-83
2022/04/17 06:29:54;;;;;;;;;;;5.80;82.40;;;;;;4951847;28;19930;-81
2022/04/17 06:32:21;;;;;;;;;;;5.70;82.60;;;;;;4948387;28;19938;-82
2022/04/17 06:34:48;;;;;;;;;;;5.70;82.70;;;;;;4944130;28;19930;-81
2022/04/17 06:37:15;;;;;;;;;;;5.70;82.80;;;;;;4948376;28;19934;-82
2022/04/17 06:39:42;;;;;;;;;;;5.70;82.80;;;;;;4948682;28;19934;-82
2022/04/17 06:42:10;;;;;;;;;;;5.80;83.20;;;;;;4944557;28;19938;-81
2022/04/17 06:44:39;;;;;;;;;;;5.70;83.30;;;;;;4951506;28;19930;-83
2022/04/17 06:47:06;;;;;;;;;;;5.70;83.10;;;;;;4951414;28;19927;-81
2022/04/17 06:49:33;;;;;;;;;;;5.70;83.40;;;;;;4965666;23;20427;-75
2022/04/17 06:52:00;;;;;;;;;;;5.70;83.50;;;;;;4978692;28;19926;-75
2022/04/17 06:54:27;;;;;;;;;;;5.70;83.90;;;;;;4982923;28;19933;-75
2022/04/17 06:56:54;;;;;;;;;;;5.70;84.00;;;;;;4980167;28;19938;-76
2022/04/17 06:59:22;;;;;;;;;;;5.70;84.30;;;;;;4965168;28;20867;-75
2022/04/17 07:01:49;;;;;;;;;;;5.80;84.30;;;;;;4969337;28;19937;-76
2022/04/17 07:04:18;;;;;;;;;;;5.80;84.40;;;;;;4970134;28;20414;-75
2022/04/17 07:06:45;;;;;;;;;;;5.80;84.60;;;;;;4970930;28;19973;-75
2022/04/17 07:09:12;;;;;;;;;;;5.90;84.70;;;;;;4975522;28;19926;-76
2022/04/17 07:11:38;;;;;;;;;;;5.80;84.50;;;;;;4968801;28;19943;-76
2022/04/17 07:14:06;;;;;;;;;;;5.80;84.40;;;;;;4973872;28;20036;-76
2022/04/17 07:16:35;;;;;;;;;;;5.90;84.40;;;;;;4978462;28;19933;-76
2022/04/17 07:19:02;;;;;;;;;;;5.90;84.60;;;;;;4975160;28;20348;-75
2022/04/17 07:21:28;;;;;;;;;;;5.90;84.70;;;;;;4976470;28;20028;-75
2022/04/17 07:23:55;;;;;;;;;;;5.90;84.90;;;;;;4978632;28;20400;-75
2022/04/17 07:26:22;;;;;;;;;;;5.90;84.40;;;;;;4984213;28;20020;-75
2022/04/17 07:28:49;;;;;;;;;;;5.90;84.70;;;;;;4979711;28;19993;-75
2022/04/17 07:31:16;;;;;;;;;;;5.90;84.70;;;;;;4975474;28;19934;-75
2022/04/17 07:33:45;;;;;;;;;;;5.90;84.60;;;;;;4975369;28;21914;-74
2022/04/17 07:36:12;;;;;;;;;;;5.90;84.80;;;;;;4977275;28;19930;-77
2022/04/17 07:38:39;;;;;;;;;;;5.90;84.80;;;;;;4978813;28;19933;-78
2022/04/17 07:41:06;;;;;;;;;;;5.90;84.90;;;;;;4971999;28;20007;-76
2022/04/17 07:43:33;;;;;;;;;;;6.00;85.10;;;;;;4972807;28;19932;-77
2022/04/17 07:46:00;;;;;;;;;;;6.00;85.10;;;;;;4976069;28;20028;-76
2022/04/17 07:48:27;;;;;;;;;;;5.90;85.10;;;;;;4979432;28;19933;-76
2022/04/17 07:50:55;;;;;;;;;;;5.90;85.20;;;;;;4960846;28;19926;-76
2022/04/17 07:53:22;;;;;;;;;;;5.90;85.30;;;;;;4979480;28;19952;-75
2022/04/17 07:55:50;;;;;;;;;;;6.00;85.40;;;;;;4978759;28;20141;-76
2022/04/17 07:58:24;;;;;;;;;;;6.00;85.50;;;;;;4982869;28;19976;-76
2022/04/17 08:00:57;;;;;;;;;;;6.00;85.50;;;;;;4980740;28;19926;-75
2022/04/17 08:03:45;;;;;;;;;;;6.00;85.30;;;;;;4980923;28;19965;-76
2022/04/17 08:06:15;;;;;;;;;;;6.00;85.30;;;;;;4986025;28;19930;-76
2022/04/17 08:08:43;;;;;;;;;;;6.00;85.30;;;;;;4978135;28;20447;-75
2022/04/17 08:11:10;;;;;;;;;;;6.10;85.30;;;;;;4978852;28;19930;-75
2022/04/17 08:13:37;;;;;;;;;;;6.00;85.30;;;;;;4984446;28;19926;-76
2022/04/17 08:16:05;;;;;;;;;;;6.00;85.30;;;;;;4981885;28;19953;-76
2022/04/17 08:18:33;;;;;;;;;;;6.00;85.30;;;;;;4966934;28;19930;-75
2022/04/17 08:21:00;;;;;;;;;;;6.00;85.30;;;;;;4980148;28;19961;-75
2022/04/17 08:23:28;;;;;;;;;;;6.10;85.10;;;;;;4985318;28;19984;-75
2022/04/17 08:25:55;;;;;;;;;;;6.00;85.10;;;;;;4985732;28;20400;-74
2022/04/17 08:28:22;;;;;;;;;;;6.10;85.20;;;;;;4960793;28;20784;-74
2022/04/17 08:30:49;;;;;;;;;;;6.10;85.30;;;;;;4981396;28;19926;-75
2022/04/17 08:33:16;;;;;;;;;;;6.10;85.30;;;;;;4971183;28;20610;-74
2022/04/17 08:35:43;;;;;;;;;;;6.10;85.00;;;;;;4963186;28;19926;-75
2022/04/17 08:38:10;;;;;;;;;;;6.10;84.90;;;;;;4982097;28;19979;-74
2022/04/17 08:40:40;;;;;;;;;;;6.20;84.70;;;;;;4983281;28;20308;-75
2022/04/17 08:43:07;;;;;;;;;;;6.20;84.60;;;;;;4977706;28;19942;-75
2022/04/17 08:45:34;;;;;;;;;;;6.20;84.20;;;;;;4976735;28;20456;-76
2022/04/17 08:48:02;;;;;;;;;;;6.20;84.30;;;;;;4981463;28;19930;-75
2022/04/17 08:50:29;;;;;;;;;;;6.20;84.30;;;;;;4971831;28;19933;-75
2022/04/17 08:52:58;;;;;;;;;;;6.20;84.40;;;;;;4980040;28;19929;-75
2022/04/17 08:55:25;;;;;;;;;;;6.20;84.30;;;;;;4982148;28;19933;-73
2022/04/17 08:57:54;;;;;;;;;;;6.30;84.50;;;;;;4976626;28;20340;-75
2022/04/17 09:00:21;;;;;;;;;;;6.30;84.70;;;;;;4963559;28;19933;-74
2022/04/17 09:02:48;;;;;;;;;;;6.30;84.90;;;;;;4973989;28;20009;-75
2022/04/17 09:05:16;;;;;;;;;;;6.30;85.10;;;;;;4983427;28;20374;-74
2022/04/17 09:07:45;;;;;;;;;;;6.30;85.20;;;;;;4977507;28;19930;-75
2022/04/17 09:10:11;;;;;;;;;;;6.30;85.30;;;;;;4982083;28;19926;-75
2022/04/17 09:12:39;;;;;;;;;;;6.40;85.00;;;;;;4978611;28;19926;-75
2022/04/17 09:15:10;;;;;;;;;;;6.40;84.70;;;;;;4983441;28;20323;-74
2022/04/17 09:17:37;;;;;;;;;;;6.40;84.70;;;;;;4976836;28;19988;-74
2022/04/17 09:20:05;;;;;;;;;;;6.40;84.60;;;;;;4982222;28;20443;-75
2022/04/17 09:22:46;;;;;;;;;;;6.40;84.20;;;;;;4975240;28;20471;-74
2022/04/17 09:25:13;;;;;;;;;;;6.40;84.30;;;;;;4980276;28;20339;-75
2022/04/17 09:27:42;;;;;;;;;;;6.40;84.20;;;;;;4974602;28;19980;-75
2022/04/17 09:33:09;;;;;;;;;;;6.50;83.40;;;;;;5079657;27;20378;-76
2022/04/17 09:35:36;;;;;;;;;;;6.50;83.20;;;;;;5060280;28;19924;-76
2022/04/17 09:38:05;;;;;;;;;;;6.50;83.30;;;;;;5062972;28;19985;-76
2022/04/17 09:40:32;;;;;;;;;;;6.50;83.60;;;;;;5057313;28;20339;-76
2022/04/17 09:43:08;;;;;;;;;;;6.50;83.70;;;;;;5062804;28;19951;-76
2022/04/17 09:45:55;;;;;;;;;;;6.50;83.90;;;;;;5062041;28;19928;-75
2022/04/17 09:48:23;;;;;;;;;;;6.50;83.70;;;;;;5066484;28;19929;-74
2022/04/17 09:50:50;;;;;;;;;;;6.50;83.70;;;;;;5058897;28;19925;-77
2022/04/17 09:53:29;;;;;;;;;;;6.60;83.90;;;;;;5054241;28;20038;-76
2022/04/17 09:56:04;;;;;;;;;;;6.60;84.10;;;;;;5060746;28;19933;-76
2022/04/17 09:58:31;;;;;;;;;;;6.60;83.90;;;;;;5048346;28;20011;-74
2022/04/17 10:00:58;;;;;;;;;;;6.60;83.20;;;;;;5053113;28;19943;-77
2022/04/17 10:03:27;;;;;;;;;;;6.60;82.50;;;;;;5061462;28;19925;-76
2022/04/17 10:05:53;;;;;;;;;;;6.60;82.40;;;;;;5057981;28;19932;-76
2022/04/17 10:08:20;;;;;;;;;;;6.70;82.20;;;;;;5055691;28;20347;-75
2022/04/17 10:10:47;;;;;;;;;;;6.70;82.10;;;;;;5055956;28;20421;-75
2022/04/17 10:13:14;;;;;;;;;;;6.70;82.00;;;;;;5055873;28;20302;-76
2022/04/17 10:15:41;;;;;;;;;;;6.70;82.10;;;;;;5051375;28;19925;-76
2022/04/17 10:18:08;;;;;;;;;;;6.70;82.20;;;;;;5060118;28;19964;-76
2022/04/17 10:20:37;;;;;;;;;;;6.70;82.40;;;;;;5060304;28;19932;-76
2022/04/17 10:23:07;;;;;;;;;;;6.70;82.40;;;;;;5059820;28;19976;-76
2022/04/17 10:25:35;;;;;;;;;;;6.80;81.80;;;;;;5054923;28;19936;-74
2022/04/17 10:28:04;;;;;;;;;;;6.80;81.70;;;;;;5055734;28;19937;-77
2022/04/17 10:30:38;;;;;;;;;;;6.80;81.40;;;;;;5050816;28;19937;-76
2022/04/17 10:33:16;;;;;;;;;;;6.80;81.60;;;;;;5053660;28;20386;-76
2022/04/17 10:36:10;;;;;;;;;;;6.80;81.90;;;;;;5055302;28;19933;-75
2022/04/17 10:38:45;;;;;;;;;;;6.80;81.80;;;;;;5028166;28;19932;-76
2022/04/17 10:41:13;;;;;;;;;;;6.90;81.80;;;;;;5061914;28;19932;-76
2022/04/17 10:43:59;;;;;;;;;;;6.90;82.60;;;;;;5047419;28;19975;-76
2022/04/17 10:46:27;;;;;;;;;;;6.90;82.00;;;;;;5050891;28;19951;-76
2022/04/17 10:48:55;;;;;;;;;;;6.90;81.90;;;;;;5051591;28;19971;-76
2022/04/17 10:51:25;;;;;;;;;;;7.00;81.70;;;;;;5051457;28;19979;-76
2022/04/17 10:53:59;;;;;;;;;;;7.00;81.90;;;;;;5047785;28;19925;-76
2022/04/17 10:56:27;;;;;;;;;;;7.00;82.00;;;;;;5046047;28;19979;-76
2022/04/17 10:58:54;;;;;;;;;;;7.00;81.90;;;;;;5043827;28;20031;-76
2022/04/17 11:01:40;;;;;;;;;;;7.00;81.60;;;;;;5050640;28;20333;-76
2022/04/17 11:04:15;;;;;;;;;;;7.10;81.40;;;;;;5073901;28;20382;-76
2022/04/17 11:06:42;;;;;;;;;;;7.10;81.30;;;;;;5043174;28;19967;-76
2022/04/17 11:09:12;;;;;;;;;;;7.10;81.20;;;;;;5051131;28;20022;-76
2022/04/17 11:11:39;;;;;;;;;;;7.10;81.30;;;;;;5047053;28;20033;-76
2022/04/17 11:14:11;;;;;;;;;;;7.20;81.80;;;;;;5048773;28;19936;-76
2022/04/17 11:16:39;;;;;;;;;;;7.20;82.00;;;;;;5049340;28;20391;-76
2022/04/17 11:19:10;;;;;;;;;;;7.20;82.20;;;;;;5052913;28;20352;-76
2022/04/17 11:21:37;;;;;;;;;;;7.20;82.20;;;;;;5053040;28;19931;-76
2022/04/17 11:24:04;;;;;;;;;;;7.20;82.50;;;;;;5048721;28;19924;-76
2022/04/17 11:26:50;;;;;;;;;;;7.30;82.70;;;;;;5050425;28;20461;-75
2022/04/17 11:29:33;;;;;;;;;;;7.30;82.90;;;;;;5048457;28;19983;-75
2022/04/17 11:32:00;;;;;;;;;;;7.30;82.80;;;;;;5050823;28;19928;-76
2022/04/17 11:34:41;;;;;;;;;;;7.40;83.20;;;;;;5043636;28;19939;-76
2022/04/17 11:37:07;;;;;;;;;;;7.30;83.40;;;;;;5061844;28;19924;-75
2022/04/17 11:39:34;;;;;;;;;;;7.40;83.50;;;;;;5118681;22;21978;-76
2022/04/17 11:42:01;;;;;;;;;;;7.40;83.30;;;;;;5046247;28;20364;-76
2022/04/17 11:44:29;;;;;;;;;;;7.50;83.40;;;;;;5041911;28;19968;-76
2022/04/17 11:49:25;;;;;;;;;;;7.50;83.80;;;;;;5034193;22;20462;-77
2022/04/17 11:51:52;;;;;;;;;;;7.50;83.40;;;;;;5047876;28;20017;-77
2022/04/17 11:54:31;;;;;;;;;;;7.50;83.80;;;;;;5036660;28;20467;-78
2022/04/17 11:56:58;;;;;;;;;;;7.50;83.70;;;;;;5041921;28;20267;-77
2022/04/17 11:59:25;;;;;;;;;;;7.50;84.00;;;;;;5047734;28;19925;-77
2022/04/17 12:02:08;;;;;;;;;;;7.60;84.00;;;;;;5056142;28;19944;-78
2022/04/17 12:04:36;;;;;;;;;;;7.60;83.90;;;;;;5055309;28;19938;-78
2022/04/17 12:07:03;;;;;;;;;;;7.60;83.20;;;;;;5050846;28;19932;-78
2022/04/17 12:09:30;;;;;;;;;;;7.70;83.30;;;;;;5055028;28;20345;-77
2022/04/17 12:11:57;;;;;;;;;;;7.70;83.10;;;;;;5051612;28;19933;-77
2022/04/17 12:14:28;;;;;;;;;;;7.70;83.20;;;;;;5063532;28;19993;-78
2022/04/17 12:16:55;;;;;;;;;;;7.70;83.30;;;;;;5065112;28;19931;-77
2022/04/17 12:19:25;;;;;;;;;;;7.70;83.50;;;;;;5062697;28;19928;-78
2022/04/17 12:21:52;;;;;;;;;;;7.70;83.70;;;;;;5046351;28;19933;-78
2022/04/17 12:24:19;;;;;;;;;;;7.80;83.90;;;;;;5057883;28;20276;-77
2022/04/17 12:26:46;;;;;;;;;;;7.80;83.40;;;;;;5051448;28;19944;-78
2022/04/17 12:29:14;;;;;;;;;;;7.80;83.60;;;;;;5065452;28;19935;-78
2022/04/17 12:31:41;;;;;;;;;;;7.80;83.70;;;;;;5068043;28;19924;-78
2022/04/17 12:34:09;;;;;;;;;;;7.80;83.50;;;;;;5057730;28;20409;-78
2022/04/17 12:36:38;;;;;;;;;;;7.90;83.80;;;;;;5055407;28;20002;-79
2022/04/17 12:39:05;;;;;;;;;;;7.90;84.60;;;;;;5059378;28;20015;-77
2022/04/17 12:41:40;;;;;;;;;;;8.00;85.60;;;;;;5057929;28;19924;-77
2022/04/17 12:44:07;;;;;;;;;;;8.80;85.10;;;;;;5071432;28;19928;-77
2022/04/17 12:46:35;;;;;;;;;;;9.40;83.40;;;;;;5054407;28;19955;-77
2022/04/17 12:49:06;;;;;;;;;;;9.80;83.50;;;;;;5054273;28;19943;-77
2022/04/17 12:51:33;;;;;;;;;;;10.20;80.30;;;;;;5099593;22;19932;-78
2022/04/17 12:57:10;;;;;;;;;;;10.70;79.30;;;;;;5067668;28;19939;-80
2022/04/17 12:59:41;;;;;;;;;;;11.00;79.40;;;;;;5072997;28;19928;-81
2022/04/17 13:02:19;;;;;;;;;;;11.10;78.30;;;;;;5081140;28;19924;-82
2022/04/17 13:05:02;;;;;;;;;;;11.20;78.10;;;;;;5071141;28;20023;-82
2022/04/17 13:07:34;;;;;;;;;;;11.20;77.90;;;;;;5061941;28;19982;-76
2022/04/17 13:10:04;;;;;;;;;;;11.30;78.40;;;;;;5070458;28;19935;-80
2022/04/17 13:12:31;;;;;;;;;;;11.50;77.10;;;;;;5054488;28;19925;-78
2022/04/17 13:14:59;;;;;;;;;;;11.50;77.60;;;;;;5058457;28;19931;-79
2022/04/17 13:17:26;;;;;;;;;;;11.50;77.00;;;;;;5059752;28;19925;-78
2022/04/17 13:19:53;;;;;;;;;;;11.70;77.00;;;;;;5055756;28;19947;-78
2022/04/17 13:22:19;;;;;;;;;;;11.80;76.70;;;;;;5059466;28;19994;-81
2022/04/17 13:24:46;;;;;;;;;;;11.90;75.90;;;;;;5051573;28;20844;-78
2022/04/17 14:04:52;;;;;;;;;;;10.70;79.10;;;;;;4992269;28;20073;-81
2022/04/17 14:07:23;;;;;;;;;;;10.70;79.50;;;;;;4989372;28;19936;-81
2022/04/17 14:09:50;;;;;;;;;;;10.70;80.80;;;;;;4971173;28;19930;-80
2022/04/17 14:12:17;;;;;;;;;;;10.70;80.10;;;;;;4986363;23;20360;-79
2022/04/17 14:14:45;;;;;;;;;;;10.70;79.50;;;;;;4983399;28;20238;-80
2022/04/17 14:17:12;;;;;;;;;;;10.70;79.40;;;;;;4974482;28;19934;-79
2022/04/17 14:19:39;;;;;;;;;;;10.70;79.90;;;;;;4974502;28;19941;-80
2022/04/17 14:22:08;;;;;;;;;;;10.70;80.00;;;;;;4974494;28;19926;-80
2022/04/17 14:24:35;;;;;;;;;;;10.70;80.20;;;;;;4979905;28;19926;-78
2022/04/17 14:27:02;;;;;;;;;;;10.70;80.20;;;;;;4981605;28;20439;-80
2022/04/17 14:29:29;;;;;;;;;;;10.70;80.30;;;;;;4978682;28;20403;-80
2022/04/17 14:31:56;;;;;;;;;;;10.80;80.00;;;;;;4988958;28;19948;-80
2022/04/17 14:34:22;;;;;;;;;;;10.80;80.40;;;;;;4980410;28;20019;-80
2022/04/17 14:36:49;;;;;;;;;;;10.80;80.30;;;;;;4987568;28;20473;-80
2022/04/17 14:39:18;;;;;;;;;;;10.80;80.40;;;;;;4983872;28;19933;-80
2022/04/17 14:41:44;;;;;;;;;;;10.90;80.40;;;;;;5004628;28;19925;-80
2022/04/17 14:44:11;;;;;;;;;;;10.90;80.50;;;;;;4988227;28;19926;-80
2022/04/17 14:46:39;;;;;;;;;;;10.90;80.70;;;;;;4985357;28;19949;-80
2022/04/17 14:49:05;;;;;;;;;;;10.90;80.60;;;;;;4983880;28;19964;-80
2022/04/17 14:51:33;;;;;;;;;;;10.90;80.60;;;;;;4988336;28;19926;-80
2022/04/17 14:54:00;;;;;;;;;;;11.00;80.40;;;;;;4985238;28;19987;-80
2022/04/17 14:56:31;;;;;;;;;;;11.00;80.50;;;;;;4985916;28;19926;-79
2022/04/17 14:58:58;;;;;;;;;;;11.00;80.60;;;;;;4980092;28;19930;-80
2022/04/17 15:01:24;;;;;;;;;;;11.10;80.70;;;;;;4990084;28;19973;-80
2022/04/17 15:03:51;;;;;;;;;;;11.10;80.70;;;;;;4985192;28;19952;-80
2022/04/17 15:06:18;;;;;;;;;;;11.10;80.40;;;;;;4988775;28;19937;-80
2022/04/17 15:08:45;;;;;;;;;;;11.10;80.40;;;;;;4984585;28;19940;-79
2022/04/17 15:11:12;;;;;;;;;;;11.10;80.60;;;;;;4987518;28;19926;-80
2022/04/17 15:13:41;;;;;;;;;;;11.20;80.80;;;;;;4983823;28;19925;-80
2022/04/17 15:16:08;;;;;;;;;;;11.20;81.10;;;;;;5001764;28;20024;-80
2022/04/17 15:18:35;;;;;;;;;;;11.20;80.90;;;;;;4989998;28;19992;-80
2022/04/17 15:21:02;;;;;;;;;;;11.20;80.60;;;;;;4991690;28;19933;-80
2022/04/17 15:23:30;;;;;;;;;;;11.20;80.40;;;;;;4988121;28;19936;-80
2022/04/17 15:25:57;;;;;;;;;;;11.30;80.50;;;;;;4977825;28;19926;-80
2022/04/17 15:28:27;;;;;;;;;;;11.30;80.30;;;;;;4987928;28;19980;-80
2022/04/17 15:30:55;;;;;;;;;;;11.30;79.80;;;;;;4981194;28;20320;-80
2022/04/17 15:33:23;;;;;;;;;;;11.30;79.60;;;;;;4980378;28;19957;-79
2022/04/17 15:35:49;;;;;;;;;;;11.30;79.40;;;;;;4982213;28;19930;-80
2022/04/17 15:38:16;;;;;;;;;;;11.40;79.50;;;;;;5004350;28;20471;-80
2022/04/17 15:40:43;;;;;;;;;;;11.40;79.50;;;;;;5003898;28;19934;-80